createdAt,value
2016-11-27T00:00:39.171Z,0
2016-11-27T00:01:52.730Z,0
2016-11-27T00:03:06.399Z,0
2016-11-27T00:04:19.511Z,0
2016-11-27T00:05:32.919Z,0
2016-11-27T00:06:46.460Z,0
2016-11-27T00:08:00.039Z,0
2016-11-27T00:09:13.668Z,0
2016-11-27T00:10:27.311Z,0
2016-11-27T00:11:40.398Z,0
2016-11-27T00:12:54.024Z,0
2016-11-27T00:14:07.651Z,0
2016-11-27T00:15:21.279Z,0
2016-11-27T00:17:06.097Z,0
2016-11-27T00:18:19.734Z,0
2016-11-27T00:19:33.357Z,0
2016-11-27T00:20:45.342Z,0
2016-11-27T00:21:58.948Z,0
2016-11-27T00:23:12.299Z,0
2016-11-27T00:24:25.905Z,0
2016-11-27T00:25:39.539Z,0
2016-11-27T00:26:52.617Z,0
2016-11-27T00:28:04.896Z,0
2016-11-27T00:29:18.563Z,0
2016-11-27T00:30:31.809Z,0
2016-11-27T00:31:45.420Z,0
2016-11-27T00:32:58.571Z,0
2016-11-27T00:34:11.822Z,0
2016-11-27T00:35:24.928Z,0
2016-11-27T00:36:38.540Z,0
2016-11-27T00:37:51.608Z,0
2016-11-27T00:39:05.228Z,0
2016-11-27T00:40:18.783Z,0
2016-11-27T00:41:31.345Z,0
2016-11-27T00:42:44.926Z,0
2016-11-27T00:43:58.487Z,0
2016-11-27T00:45:12.382Z,0
2016-11-27T00:46:26.023Z,0
2016-11-27T00:47:39.605Z,0
2016-11-27T00:48:52.709Z,0
2016-11-27T00:50:06.305Z,0
2016-11-27T00:51:19.840Z,0
2016-11-27T00:52:33.223Z,0
2016-11-27T00:53:46.895Z,0
2016-11-27T00:54:59.902Z,0
2016-11-27T00:56:12.912Z,0
2016-11-27T00:57:25.459Z,0
2016-11-27T00:58:39.291Z,0
2016-11-27T00:59:52.921Z,0
2016-11-27T01:01:06.144Z,0
2016-11-27T01:02:19.734Z,0
2016-11-27T01:03:33.044Z,0
2016-11-27T01:04:46.674Z,0
2016-11-27T01:06:00.318Z,0
2016-11-27T01:07:13.406Z,0
2016-11-27T01:08:26.996Z,0
2016-11-27T01:09:40.658Z,0
2016-11-27T01:10:54.219Z,0
2016-11-27T01:12:07.827Z,0
2016-11-27T01:13:21.150Z,0
2016-11-27T01:14:33.655Z,0
2016-11-27T01:15:47.257Z,0
2016-11-27T01:17:01.287Z,0
2016-11-27T01:18:14.952Z,0
2016-11-27T01:19:28.027Z,0
2016-11-27T01:20:41.124Z,0
2016-11-27T01:21:54.246Z,0
2016-11-27T01:23:07.812Z,0
2016-11-27T01:24:21.133Z,0
2016-11-27T01:25:34.188Z,0
2016-11-27T01:26:47.804Z,0
2016-11-27T01:28:01.406Z,0
2016-11-27T01:29:45.573Z,0
2016-11-27T01:30:59.150Z,0
2016-11-27T01:32:12.789Z,0
2016-11-27T01:33:26.117Z,0
2016-11-27T01:34:39.354Z,0
2016-11-27T01:35:52.382Z,0
2016-11-27T01:37:06.184Z,0
2016-11-27T01:38:19.821Z,0
2016-11-27T01:39:33.036Z,0
2016-11-27T01:40:46.667Z,0
2016-11-27T01:41:59.954Z,0
2016-11-27T01:43:13.633Z,0
2016-11-27T01:44:26.683Z,0
2016-11-27T01:45:40.519Z,0
2016-11-27T01:46:54.057Z,0
2016-11-27T01:48:07.115Z,0
2016-11-27T01:49:20.806Z,0
2016-11-27T01:50:34.411Z,0
2016-11-27T01:51:47.739Z,0
2016-11-27T01:53:01.339Z,0
2016-11-27T01:54:14.371Z,0
2016-11-27T01:55:27.977Z,0
2016-11-27T01:56:40.516Z,0
2016-11-27T01:57:54.100Z,0
2016-11-27T01:59:07.748Z,0
2016-11-27T02:00:21.443Z,0
2016-11-27T02:01:35.081Z,0
2016-11-27T02:02:48.190Z,0
2016-11-27T02:04:01.760Z,0
2016-11-27T02:05:15.360Z,0
2016-11-27T02:06:28.465Z,0
2016-11-27T02:07:42.400Z,0
2016-11-27T02:10:40.477Z,0
2016-11-27T02:11:53.815Z,0
2016-11-27T02:13:07.580Z,0
2016-11-27T02:14:20.765Z,0
2016-11-27T02:15:34.451Z,0
2016-11-27T02:16:48.136Z,0
2016-11-27T02:18:01.392Z,0
2016-11-27T02:19:15.010Z,0
2016-11-27T02:20:28.620Z,0
2016-11-27T02:21:41.835Z,0
2016-11-27T02:22:54.911Z,0
2016-11-27T02:24:08.001Z,0
2016-11-27T02:25:21.041Z,0
2016-11-27T02:26:34.611Z,0
2016-11-27T02:27:48.202Z,0
2016-11-27T02:29:01.779Z,0
2016-11-27T02:30:15.422Z,0
2016-11-27T02:31:29.035Z,0
2016-11-27T02:32:42.758Z,0
2016-11-27T02:33:56.344Z,0
2016-11-27T02:35:09.913Z,0
2016-11-27T02:36:23.503Z,0
2016-11-27T02:37:36.158Z,0
2016-11-27T02:38:49.234Z,0
2016-11-27T02:40:03.110Z,0
2016-11-27T02:41:16.662Z,0
2016-11-27T02:42:30.259Z,0
2016-11-27T02:43:43.833Z,0
2016-11-27T02:44:57.255Z,0
2016-11-27T02:46:10.846Z,0
2016-11-27T02:47:24.455Z,0
2016-11-27T02:48:38.118Z,0
2016-11-27T02:49:51.698Z,0
2016-11-27T02:51:05.295Z,0
2016-11-27T02:52:18.423Z,0
2016-11-27T02:53:32.031Z,0
2016-11-27T02:54:45.373Z,0
2016-11-27T02:55:58.169Z,0
2016-11-27T02:57:11.246Z,0
2016-11-27T02:58:24.322Z,0
2016-11-27T02:59:37.857Z,0
2016-11-27T03:00:50.955Z,0
2016-11-27T03:02:04.568Z,0
2016-11-27T03:03:17.898Z,0
2016-11-27T03:04:31.537Z,0
2016-11-27T03:05:44.610Z,0
2016-11-27T03:06:58.244Z,0
2016-11-27T03:08:11.304Z,0
2016-11-27T03:09:24.816Z,0
2016-11-27T03:10:38.446Z,0
2016-11-27T03:11:51.495Z,0
2016-11-27T03:13:05.073Z,0
2016-11-27T03:14:18.695Z,0
2016-11-27T03:15:31.707Z,0
2016-11-27T03:16:44.222Z,0
2016-11-27T03:17:57.891Z,0
2016-11-27T03:19:11.504Z,0
2016-11-27T03:20:25.134Z,0
2016-11-27T03:21:38.746Z,0
2016-11-27T03:22:51.777Z,0
2016-11-27T03:24:05.379Z,0
2016-11-27T03:25:19.081Z,0
2016-11-27T03:26:46.594Z,0
2016-11-27T03:28:00.231Z,0
2016-11-27T03:29:13.550Z,0
2016-11-27T03:30:26.633Z,0
2016-11-27T03:31:40.624Z,0
2016-11-27T03:32:53.619Z,0
2016-11-27T03:34:06.689Z,0
2016-11-27T03:35:20.252Z,0
2016-11-27T03:36:33.895Z,0
2016-11-27T03:37:47.473Z,0
2016-11-27T03:39:01.112Z,0
2016-11-27T03:40:14.213Z,0
2016-11-27T03:41:27.856Z,0
2016-11-27T03:42:41.420Z,0
2016-11-27T03:43:54.509Z,0
2016-11-27T03:45:07.626Z,0
2016-11-27T03:46:20.718Z,0
2016-11-27T03:47:33.805Z,0
2016-11-27T03:48:47.480Z,0
2016-11-27T03:50:01.122Z,0
2016-11-27T03:51:14.299Z,0
2016-11-27T03:52:27.955Z,0
2016-11-27T03:53:41.623Z,0
2016-11-27T03:54:55.222Z,0
2016-11-27T03:56:07.742Z,0
2016-11-27T03:57:21.317Z,0
2016-11-27T03:58:34.950Z,0
2016-11-27T03:59:48.506Z,0
2016-11-27T04:01:02.163Z,0
2016-11-27T04:02:15.813Z,0
2016-11-27T04:03:28.841Z,0
2016-11-27T04:04:42.712Z,0
2016-11-27T04:06:27.458Z,0
2016-11-27T04:07:40.525Z,0
2016-11-27T04:08:54.195Z,0
2016-11-27T04:10:07.367Z,0
2016-11-27T04:11:20.167Z,0
2016-11-27T04:12:33.768Z,0
2016-11-27T04:13:47.362Z,0
2016-11-27T04:15:00.249Z,0
2016-11-27T04:16:13.285Z,0
2016-11-27T04:17:26.847Z,0
2016-11-27T04:18:40.111Z,0
2016-11-27T04:19:53.139Z,0
2016-11-27T04:21:06.347Z,0
2016-11-27T04:22:19.944Z,0
2016-11-27T04:23:33.516Z,0
2016-11-27T04:24:47.438Z,0
2016-11-27T04:26:01.060Z,0
2016-11-27T04:27:14.694Z,0
2016-11-27T04:28:28.249Z,0
2016-11-27T04:29:41.888Z,0
2016-11-27T04:30:55.478Z,0
2016-11-27T04:32:09.467Z,0
2016-11-27T04:33:22.529Z,0
2016-11-27T04:34:36.339Z,0
2016-11-27T04:35:49.902Z,0
2016-11-27T04:37:03.500Z,0
2016-11-27T04:38:16.566Z,0
2016-11-27T04:39:29.566Z,0
2016-11-27T04:40:43.215Z,0
2016-11-27T04:41:56.811Z,0
2016-11-27T04:43:10.709Z,0
2016-11-27T04:44:24.297Z,0
2016-11-27T04:45:51.845Z,0
2016-11-27T04:47:04.330Z,0
2016-11-27T04:48:17.941Z,0
2016-11-27T04:49:30.958Z,0
2016-11-27T04:50:44.588Z,0
2016-11-27T04:51:57.636Z,0
2016-11-27T04:53:11.181Z,0
2016-11-27T04:54:24.777Z,0
2016-11-27T04:55:37.844Z,0
2016-11-27T04:56:51.492Z,0
2016-11-27T04:58:05.110Z,0
2016-11-27T04:59:18.733Z,0
2016-11-27T05:00:32.310Z,0
2016-11-27T05:01:45.430Z,0
2016-11-27T05:02:58.971Z,0
2016-11-27T05:04:11.998Z,0
2016-11-27T05:05:25.128Z,0
2016-11-27T05:06:38.728Z,0
2016-11-27T05:07:51.806Z,0
2016-11-27T05:09:04.918Z,0
2016-11-27T05:10:18.015Z,0
2016-11-27T05:11:31.049Z,0
2016-11-27T05:12:44.621Z,0
2016-11-27T05:13:58.201Z,0
2016-11-27T05:15:11.751Z,0
2016-11-27T05:16:25.269Z,0
2016-11-27T05:17:38.909Z,0
2016-11-27T05:18:51.957Z,0
2016-11-27T05:20:05.584Z,0
2016-11-27T05:21:18.621Z,0
2016-11-27T05:22:31.645Z,0
2016-11-27T05:23:45.212Z,0
2016-11-27T05:24:58.815Z,0
2016-11-27T05:26:11.936Z,0
2016-11-27T05:27:25.552Z,0
2016-11-27T05:28:39.487Z,0
2016-11-27T05:29:52.536Z,0
2016-11-27T05:31:06.352Z,0
2016-11-27T05:32:19.969Z,0
2016-11-27T05:33:33.344Z,0
2016-11-27T05:34:46.914Z,0
2016-11-27T05:36:00.239Z,0
2016-11-27T05:37:13.771Z,0
2016-11-27T05:38:27.332Z,0
2016-11-27T05:39:40.395Z,0
2016-11-27T05:40:54.044Z,0
2016-11-27T05:42:07.620Z,0
2016-11-27T05:43:21.216Z,0
2016-11-27T05:44:34.830Z,0
2016-11-27T05:45:48.387Z,0
2016-11-27T05:47:01.451Z,0
2016-11-27T05:48:15.098Z,0
2016-11-27T05:49:28.172Z,0
2016-11-27T05:50:41.867Z,0
2016-11-27T05:51:54.709Z,0
2016-11-27T05:53:08.256Z,0
2016-11-27T05:54:21.289Z,0
2016-11-27T05:55:33.802Z,0
2016-11-27T05:56:47.452Z,0
2016-11-27T05:58:01.092Z,0
2016-11-27T05:59:14.142Z,0
2016-11-27T06:00:27.802Z,0
2016-11-27T06:01:41.350Z,0
2016-11-27T06:02:54.958Z,0
2016-11-27T06:04:08.084Z,0
2016-11-27T06:05:21.639Z,0
2016-11-27T06:06:34.728Z,0
2016-11-27T06:07:48.386Z,0
2016-11-27T06:09:02.005Z,0
2016-11-27T06:10:15.153Z,0
2016-11-27T06:11:28.723Z,0
2016-11-27T06:12:41.766Z,0
2016-11-27T06:13:55.413Z,0
2016-11-27T06:15:08.933Z,0
2016-11-27T06:16:22.566Z,0
2016-11-27T06:17:36.396Z,0
2016-11-27T06:19:20.581Z,0
2016-11-27T06:20:33.638Z,0
2016-11-27T06:21:47.282Z,0
2016-11-27T06:23:00.972Z,0
2016-11-27T06:24:14.600Z,0
2016-11-27T06:25:28.235Z,0
2016-11-27T06:26:41.308Z,0
2016-11-27T06:27:54.840Z,0
2016-11-27T06:29:07.953Z,0
2016-11-27T06:30:21.516Z,0
2016-11-27T06:31:34.549Z,0
2016-11-27T06:32:48.083Z,0
2016-11-27T06:34:00.634Z,0
2016-11-27T06:35:14.304Z,0
2016-11-27T06:36:26.848Z,0
2016-11-27T06:37:39.442Z,0
2016-11-27T06:38:52.474Z,0
2016-11-27T06:40:06.496Z,0
2016-11-27T06:41:20.166Z,0
2016-11-27T06:42:33.700Z,0
2016-11-27T06:43:47.860Z,0
2016-11-27T06:45:01.511Z,0
2016-11-27T06:46:14.334Z,0
2016-11-27T06:47:27.421Z,0
2016-11-27T06:48:41.037Z,0
2016-11-27T06:49:54.664Z,0
2016-11-27T06:51:07.761Z,0
2016-11-27T06:52:21.398Z,0
2016-11-27T06:53:35.063Z,0
2016-11-27T06:54:48.112Z,0
2016-11-27T06:56:01.678Z,0
2016-11-27T06:57:14.699Z,0
2016-11-27T06:58:26.730Z,0
2016-11-27T06:59:40.674Z,0
2016-11-27T07:00:53.715Z,0
2016-11-27T07:02:07.392Z,0
2016-11-27T07:03:20.977Z,0
2016-11-27T07:04:34.677Z,0
2016-11-27T07:06:19.345Z,0
2016-11-27T07:07:33.413Z,0
2016-11-27T07:08:47.042Z,0
2016-11-27T07:10:00.661Z,0
2016-11-27T07:11:14.335Z,0
2016-11-27T07:12:27.350Z,0
2016-11-27T07:13:40.987Z,0
2016-11-27T07:14:54.603Z,0
2016-11-27T07:16:07.672Z,0
2016-11-27T07:17:20.673Z,0
2016-11-27T07:18:33.697Z,0
2016-11-27T07:19:46.757Z,0
2016-11-27T07:21:00.331Z,0
2016-11-27T07:22:13.355Z,0
2016-11-27T07:23:26.976Z,0
2016-11-27T07:24:40.737Z,0
2016-11-27T07:25:53.804Z,0
2016-11-27T07:27:06.860Z,0
2016-11-27T07:28:20.264Z,0
2016-11-27T07:29:33.959Z,0
2016-11-27T07:30:47.064Z,0
2016-11-27T07:32:00.251Z,0
2016-11-27T07:33:13.312Z,0
2016-11-27T07:34:57.970Z,0
2016-11-27T07:36:11.586Z,0
2016-11-27T07:37:24.684Z,0
2016-11-27T07:38:38.296Z,0
2016-11-27T07:39:50.858Z,0
2016-11-27T07:41:04.418Z,0
2016-11-27T07:42:17.495Z,0
2016-11-27T07:43:30.232Z,0
2016-11-27T07:44:43.570Z,0
2016-11-27T07:46:28.250Z,0
2016-11-27T07:47:41.886Z,0
2016-11-27T07:48:55.047Z,0
2016-11-27T07:50:08.638Z,0
2016-11-27T07:51:22.203Z,0
2016-11-27T07:52:35.341Z,0
2016-11-27T07:53:48.697Z,0
2016-11-27T07:55:02.286Z,0
2016-11-27T07:56:15.331Z,4
2016-11-27T07:57:28.658Z,0
2016-11-27T07:58:42.582Z,4
2016-11-27T07:59:55.927Z,4
2016-11-27T08:01:08.944Z,0
2016-11-27T08:02:22.508Z,4
2016-11-27T08:03:36.484Z,4
2016-11-27T08:04:49.577Z,8
2016-11-27T08:06:03.366Z,4
2016-11-27T08:07:16.936Z,8
2016-11-27T08:08:30.252Z,12
2016-11-27T08:09:43.334Z,12
2016-11-27T08:10:56.950Z,12
2016-11-27T08:12:10.766Z,12
2016-11-27T08:13:24.384Z,12
2016-11-27T08:14:37.424Z,16
2016-11-27T08:15:50.754Z,20
2016-11-27T08:17:04.366Z,24
2016-11-27T08:18:16.891Z,24
2016-11-27T08:19:29.737Z,32
2016-11-27T08:20:43.352Z,36
2016-11-27T08:21:55.908Z,40
2016-11-27T08:23:09.519Z,48
2016-11-27T08:24:22.099Z,52
2016-11-27T08:25:34.568Z,56
2016-11-27T08:26:48.278Z,60
2016-11-27T08:28:01.881Z,60
2016-11-27T08:29:15.496Z,60
2016-11-27T08:30:28.542Z,68
2016-11-27T08:31:41.782Z,76
2016-11-27T08:32:55.389Z,88
2016-11-27T08:34:08.462Z,96
2016-11-27T08:35:22.068Z,104
2016-11-27T08:36:35.685Z,116
2016-11-27T08:37:48.538Z,132
2016-11-27T08:39:02.111Z,144
2016-11-27T08:40:15.709Z,152
2016-11-27T08:41:29.336Z,168
2016-11-27T08:42:42.601Z,176
2016-11-27T08:43:56.176Z,188
2016-11-27T08:45:09.775Z,196
2016-11-27T08:46:23.355Z,204
2016-11-27T08:47:36.915Z,212
2016-11-27T08:48:50.477Z,220
2016-11-27T08:50:04.160Z,220
2016-11-27T08:51:17.270Z,224
2016-11-27T08:52:30.880Z,228
2016-11-27T08:53:44.001Z,228
2016-11-27T08:54:57.574Z,236
2016-11-27T08:56:10.671Z,240
2016-11-27T08:57:23.732Z,244
2016-11-27T08:58:36.853Z,244
2016-11-27T08:59:49.429Z,240
2016-11-27T09:01:03.492Z,244
2016-11-27T09:02:17.084Z,244
2016-11-27T09:03:30.251Z,252
2016-11-27T09:04:43.857Z,256
2016-11-27T09:05:56.948Z,256
2016-11-27T09:07:10.847Z,260
2016-11-27T09:08:24.516Z,260
2016-11-27T09:09:38.161Z,268
2016-11-27T09:10:51.257Z,272
2016-11-27T09:12:04.820Z,272
2016-11-27T09:13:18.438Z,276
2016-11-27T09:14:31.451Z,276
2016-11-27T09:15:44.830Z,276
2016-11-27T09:16:58.434Z,280
2016-11-27T09:18:11.482Z,300
2016-11-27T09:19:23.517Z,316
2016-11-27T09:20:36.580Z,316
2016-11-27T09:21:50.144Z,320
2016-11-27T09:23:03.811Z,324
2016-11-27T09:24:17.488Z,324
2016-11-27T09:25:31.055Z,360
2016-11-27T09:26:44.731Z,380
2016-11-27T09:27:57.590Z,392
2016-11-27T09:29:11.242Z,388
2016-11-27T09:30:24.260Z,368
2016-11-27T09:31:37.860Z,372
2016-11-27T09:32:50.972Z,392
2016-11-27T09:34:04.105Z,404
2016-11-27T09:35:17.178Z,408
2016-11-27T09:36:30.840Z,420
2016-11-27T09:37:43.925Z,432
2016-11-27T09:38:56.999Z,452
2016-11-27T09:40:10.317Z,468
2016-11-27T09:41:23.386Z,476
2016-11-27T09:42:36.568Z,488
2016-11-27T09:44:21.307Z,456
2016-11-27T09:45:34.357Z,452
2016-11-27T09:46:47.678Z,476
2016-11-27T09:48:00.789Z,492
2016-11-27T09:49:13.837Z,508
2016-11-27T09:50:27.456Z,536
2016-11-27T09:51:41.085Z,556
2016-11-27T09:52:54.710Z,588
2016-11-27T09:54:08.308Z,596
2016-11-27T09:55:21.921Z,604
2016-11-27T09:56:35.523Z,580
2016-11-27T09:57:48.593Z,568
2016-11-27T09:59:02.200Z,584
2016-11-27T10:00:15.856Z,596
2016-11-27T10:01:29.508Z,584
2016-11-27T10:02:42.586Z,524
2016-11-27T10:03:55.672Z,488
2016-11-27T10:05:09.642Z,460
2016-11-27T10:06:22.710Z,468
2016-11-27T10:07:35.760Z,480
2016-11-27T10:08:48.846Z,492
2016-11-27T10:10:01.906Z,488
2016-11-27T10:11:15.540Z,488
2016-11-27T10:12:28.026Z,488
2016-11-27T10:14:12.698Z,492
2016-11-27T10:15:26.308Z,488
2016-11-27T10:16:39.905Z,488
2016-11-27T10:17:53.520Z,480
2016-11-27T10:19:37.768Z,480
2016-11-27T10:20:51.359Z,480
2016-11-27T10:22:04.401Z,484
2016-11-27T10:23:17.513Z,484
2016-11-27T10:24:30.895Z,488
2016-11-27T10:25:44.497Z,488
2016-11-27T10:26:58.044Z,484
2016-11-27T10:28:11.139Z,484
2016-11-27T10:29:24.451Z,488
2016-11-27T10:30:38.037Z,492
2016-11-27T10:31:51.727Z,496
2016-11-27T10:33:05.279Z,504
2016-11-27T10:34:18.913Z,504
2016-11-27T10:35:32.531Z,508
2016-11-27T10:36:46.140Z,500
2016-11-27T10:37:59.569Z,500
2016-11-27T10:39:13.322Z,496
2016-11-27T10:40:26.975Z,504
2016-11-27T10:41:40.940Z,504
2016-11-27T10:42:53.771Z,508
2016-11-27T10:44:07.355Z,512
2016-11-27T10:45:20.918Z,516
2016-11-27T10:46:33.731Z,516
2016-11-27T10:47:46.501Z,516
2016-11-27T10:49:00.356Z,516
2016-11-27T10:50:13.997Z,516
2016-11-27T10:51:27.605Z,524
2016-11-27T10:52:40.150Z,532
2016-11-27T10:53:52.129Z,544
2016-11-27T10:55:35.199Z,556
2016-11-27T10:56:48.806Z,560
2016-11-27T10:58:02.356Z,564
2016-11-27T10:59:15.989Z,568
2016-11-27T11:00:29.599Z,564
2016-11-27T11:01:43.175Z,564
2016-11-27T11:02:56.525Z,568
2016-11-27T11:04:10.165Z,568
2016-11-27T11:05:23.792Z,568
2016-11-27T11:06:37.402Z,572
2016-11-27T11:07:51.056Z,580
2016-11-27T11:09:35.217Z,584
2016-11-27T11:10:48.835Z,588
2016-11-27T11:12:02.400Z,592
2016-11-27T11:13:16.018Z,596
2016-11-27T11:14:28.593Z,604
2016-11-27T11:15:42.119Z,604
2016-11-27T11:16:55.247Z,604
2016-11-27T11:18:08.871Z,564
2016-11-27T11:19:21.432Z,564
2016-11-27T11:20:35.029Z,592
2016-11-27T11:21:48.613Z,612
2016-11-27T11:23:02.304Z,632
2016-11-27T11:24:15.834Z,636
2016-11-27T11:25:28.934Z,632
2016-11-27T11:26:42.725Z,624
2016-11-27T11:27:56.345Z,624
2016-11-27T11:29:09.238Z,620
2016-11-27T11:30:22.581Z,620
2016-11-27T11:31:35.108Z,620
2016-11-27T11:32:48.115Z,628
2016-11-27T11:34:01.413Z,636
2016-11-27T11:35:15.031Z,640
2016-11-27T11:36:28.629Z,640
2016-11-27T11:37:42.223Z,644
2016-11-27T11:38:55.583Z,648
2016-11-27T11:40:08.673Z,644
2016-11-27T11:41:21.719Z,652
2016-11-27T11:43:06.627Z,652
2016-11-27T11:44:19.759Z,656
2016-11-27T11:45:33.548Z,660
2016-11-27T11:46:46.639Z,660
2016-11-27T11:47:59.719Z,664
2016-11-27T11:49:12.853Z,668
2016-11-27T11:50:26.480Z,668
2016-11-27T11:51:40.120Z,672
2016-11-27T11:52:53.776Z,676
2016-11-27T11:54:07.414Z,680
2016-11-27T11:55:21.044Z,688
2016-11-27T11:56:34.134Z,692
2016-11-27T11:57:46.101Z,692
2016-11-27T11:58:59.714Z,692
2016-11-27T12:00:12.297Z,700
2016-11-27T12:01:25.911Z,700
2016-11-27T12:02:39.166Z,704
2016-11-27T12:03:52.819Z,712
2016-11-27T12:05:06.138Z,708
2016-11-27T12:06:19.791Z,712
2016-11-27T12:07:33.436Z,712
2016-11-27T12:08:46.983Z,716
2016-11-27T12:10:00.606Z,720
2016-11-27T12:11:14.170Z,716
2016-11-27T12:12:27.498Z,732
2016-11-27T12:13:41.121Z,740
2016-11-27T12:14:54.713Z,744
2016-11-27T12:16:08.278Z,740
2016-11-27T12:17:21.897Z,744
2016-11-27T12:18:35.247Z,748
2016-11-27T12:19:48.810Z,752
2016-11-27T12:21:02.375Z,752
2016-11-27T12:22:16.070Z,752
2016-11-27T12:23:29.880Z,756
2016-11-27T12:24:43.925Z,764
2016-11-27T12:25:57.555Z,772
2016-11-27T12:27:10.596Z,776
2016-11-27T12:28:23.871Z,780
2016-11-27T12:29:36.971Z,780
2016-11-27T12:30:50.038Z,776
2016-11-27T12:32:03.673Z,780
2016-11-27T12:33:16.495Z,784
2016-11-27T12:34:30.362Z,784
2016-11-27T12:35:44.003Z,788
2016-11-27T12:36:57.607Z,784
2016-11-27T12:38:10.956Z,788
2016-11-27T12:39:24.616Z,788
2016-11-27T12:40:37.641Z,788
2016-11-27T12:41:50.451Z,784
2016-11-27T12:43:03.999Z,784
2016-11-27T12:44:17.720Z,780
2016-11-27T12:45:30.833Z,788
2016-11-27T12:46:43.416Z,804
2016-11-27T12:47:56.970Z,804
2016-11-27T12:49:10.960Z,812
2016-11-27T12:50:24.583Z,816
2016-11-27T12:51:37.410Z,824
2016-11-27T12:52:50.711Z,844
2016-11-27T12:54:03.787Z,852
2016-11-27T12:55:17.153Z,844
2016-11-27T12:56:30.509Z,844
2016-11-27T12:57:44.055Z,856
2016-11-27T12:58:57.694Z,856
2016-11-27T13:00:11.012Z,860
2016-11-27T13:01:24.159Z,876
2016-11-27T13:02:37.866Z,884
2016-11-27T13:03:50.668Z,884
2016-11-27T13:05:03.721Z,892
2016-11-27T13:06:16.793Z,892
2016-11-27T13:07:29.879Z,892
2016-11-27T13:08:42.963Z,900
2016-11-27T13:09:55.497Z,908
2016-11-27T13:11:09.109Z,916
2016-11-27T13:12:21.644Z,940
2016-11-27T13:13:35.264Z,944
2016-11-27T13:14:48.355Z,944
2016-11-27T13:16:01.996Z,956
2016-11-27T13:17:15.066Z,944
2016-11-27T13:18:27.078Z,948
2016-11-27T13:19:40.201Z,960
2016-11-27T13:20:53.259Z,984
2016-11-27T13:22:06.866Z,1032
2016-11-27T13:23:20.418Z,1072
2016-11-27T13:24:33.984Z,1080
2016-11-27T13:25:47.558Z,1056
2016-11-27T13:27:00.561Z,1056
2016-11-27T13:28:14.126Z,1048
2016-11-27T13:29:27.731Z,1064
2016-11-27T13:30:40.713Z,1076
2016-11-27T13:31:54.307Z,1100
2016-11-27T13:33:06.682Z,1136
2016-11-27T13:34:20.308Z,1156
2016-11-27T13:35:33.930Z,1168
2016-11-27T13:36:47.029Z,1164
2016-11-27T13:38:00.087Z,1160
2016-11-27T13:39:14.142Z,1164
2016-11-27T13:40:58.410Z,1208
2016-11-27T13:42:11.831Z,1260
2016-11-27T13:43:25.001Z,1304
2016-11-27T13:44:38.674Z,1372
2016-11-27T13:46:23.381Z,1480
2016-11-27T13:47:37.080Z,1560
2016-11-27T13:48:50.725Z,1596
2016-11-27T13:50:03.860Z,1720
2016-11-27T13:51:17.520Z,1968
2016-11-27T13:52:31.158Z,2248
2016-11-27T13:53:44.673Z,2612
2016-11-27T13:54:58.281Z,3072
2016-11-27T13:56:11.364Z,3664
2016-11-27T13:57:24.431Z,4180
2016-11-27T13:58:38.058Z,4604
2016-11-27T13:59:51.695Z,5168
2016-11-27T14:01:05.248Z,5616
2016-11-27T14:02:18.864Z,6056
2016-11-27T14:03:32.181Z,6356
2016-11-27T14:04:45.800Z,6504
2016-11-27T14:05:59.150Z,6444
2016-11-27T14:07:12.425Z,6548
2016-11-27T14:08:26.066Z,6364
2016-11-27T14:09:39.111Z,6536
2016-11-27T14:10:52.168Z,1524
2016-11-27T14:12:05.677Z,6484
2016-11-27T14:13:18.755Z,6448
2016-11-27T14:14:32.417Z,1664
2016-11-27T14:15:45.995Z,1180
2016-11-27T14:16:59.596Z,1144
2016-11-27T14:18:13.259Z,1072
2016-11-27T14:19:26.574Z,1080
2016-11-27T14:20:39.437Z,1176
2016-11-27T14:21:52.509Z,6656
2016-11-27T14:23:06.167Z,7204
2016-11-27T14:24:19.839Z,7248
2016-11-27T14:25:33.716Z,7552
2016-11-27T14:26:46.791Z,7760
2016-11-27T14:27:59.936Z,3276
2016-11-27T14:29:13.067Z,2196
2016-11-27T14:30:26.759Z,1616
2016-11-27T14:31:40.412Z,1500
2016-11-27T14:32:54.036Z,1684
2016-11-27T14:34:07.668Z,2472
2016-11-27T14:35:21.269Z,7760
2016-11-27T14:36:34.863Z,7660
2016-11-27T14:37:48.440Z,7904
2016-11-27T14:39:01.689Z,8060
2016-11-27T14:40:45.831Z,8292
2016-11-27T14:41:59.489Z,8364
2016-11-27T14:43:12.489Z,8376
2016-11-27T14:44:26.043Z,4452
2016-11-27T14:45:39.937Z,2060
2016-11-27T14:46:52.982Z,8640
2016-11-27T14:48:06.609Z,8748
2016-11-27T14:49:20.307Z,8720
2016-11-27T14:50:33.129Z,8800
2016-11-27T14:51:46.761Z,8920
2016-11-27T14:53:00.498Z,1956
2016-11-27T14:54:14.072Z,9036
2016-11-27T14:55:27.746Z,9000
2016-11-27T14:56:41.439Z,8956
2016-11-27T14:57:54.573Z,9096
2016-11-27T14:59:08.198Z,9068
2016-11-27T15:00:21.551Z,9180
2016-11-27T15:01:34.671Z,9280
2016-11-27T15:02:48.298Z,9172
2016-11-27T15:04:01.907Z,8376
2016-11-27T15:05:15.613Z,9092
2016-11-27T15:06:29.211Z,7132
2016-11-27T15:07:42.388Z,9008
2016-11-27T15:08:56.053Z,8824
2016-11-27T15:10:08.651Z,8676
2016-11-27T15:11:22.269Z,8956
2016-11-27T15:12:35.053Z,9064
2016-11-27T15:13:48.692Z,9156
2016-11-27T15:15:01.823Z,9324
2016-11-27T15:16:15.502Z,9492
2016-11-27T15:17:28.596Z,9768
2016-11-27T15:18:42.226Z,9676
2016-11-27T15:19:55.837Z,3196
2016-11-27T15:21:09.314Z,2248
2016-11-27T15:22:22.405Z,2128
2016-11-27T15:23:35.448Z,2124
2016-11-27T15:24:49.100Z,2332
2016-11-27T15:26:02.133Z,3636
2016-11-27T15:27:15.745Z,9496
2016-11-27T15:28:29.363Z,9616
2016-11-27T15:29:43.006Z,9472
2016-11-27T15:30:56.111Z,9332
2016-11-27T15:32:09.563Z,9300
2016-11-27T15:33:22.639Z,9232
2016-11-27T15:34:35.967Z,9288
2016-11-27T15:35:48.838Z,9228
2016-11-27T15:37:01.402Z,9252
2016-11-27T15:38:14.290Z,9232
2016-11-27T15:39:27.865Z,9416
2016-11-27T15:40:41.437Z,9412
2016-11-27T15:41:55.044Z,9584
2016-11-27T15:43:08.675Z,9364
2016-11-27T15:44:22.295Z,9516
2016-11-27T15:45:35.450Z,9504
2016-11-27T15:46:47.512Z,9584
2016-11-27T15:48:00.850Z,9532
2016-11-27T15:49:14.098Z,9276
2016-11-27T15:50:26.853Z,9188
2016-11-27T15:51:40.512Z,9216
2016-11-27T15:52:54.133Z,9344
2016-11-27T15:54:07.269Z,9292
2016-11-27T15:55:20.973Z,9332
2016-11-27T15:56:34.071Z,9328
2016-11-27T15:57:47.700Z,9300
2016-11-27T15:59:00.659Z,9416
2016-11-27T16:00:14.228Z,9216
2016-11-27T16:01:27.655Z,2300
2016-11-27T16:02:41.234Z,2304
2016-11-27T16:03:54.046Z,2288
2016-11-27T16:05:07.603Z,2276
2016-11-27T16:06:21.231Z,2772
2016-11-27T16:07:34.602Z,4884
2016-11-27T16:09:18.822Z,9700
2016-11-27T16:10:32.196Z,2440
2016-11-27T16:11:45.864Z,2532
2016-11-27T16:12:59.477Z,4688
2016-11-27T16:14:13.083Z,2404
2016-11-27T16:15:26.762Z,2508
2016-11-27T16:16:40.403Z,2332
2016-11-27T16:17:53.788Z,2316
2016-11-27T16:19:06.951Z,3012
2016-11-27T16:20:19.746Z,3596
2016-11-27T16:21:33.570Z,10060
2016-11-27T16:22:46.575Z,9600
2016-11-27T16:24:00.173Z,9460
2016-11-27T16:25:14.056Z,6360
2016-11-27T16:26:27.471Z,6992
2016-11-27T16:27:40.596Z,7960
2016-11-27T16:28:53.676Z,1928
2016-11-27T16:30:07.212Z,3664
2016-11-27T16:31:20.842Z,8312
2016-11-27T16:32:34.494Z,2052
2016-11-27T16:36:03.924Z,4664
2016-11-27T16:37:17.047Z,8264
2016-11-27T16:38:30.081Z,8072
2016-11-27T16:39:43.687Z,7864
2016-11-27T16:40:56.772Z,7736
2016-11-27T16:42:10.353Z,7772
2016-11-27T16:43:24.040Z,7720
2016-11-27T16:44:37.667Z,7776
2016-11-27T16:45:50.909Z,7596
2016-11-27T16:47:03.728Z,7296
2016-11-27T16:48:17.477Z,7308
2016-11-27T16:49:31.103Z,6176
2016-11-27T16:50:44.721Z,1368
2016-11-27T16:51:57.858Z,1216
2016-11-27T16:53:11.510Z,1148
2016-11-27T16:54:25.212Z,1084
2016-11-27T16:55:38.872Z,1048
2016-11-27T16:56:52.428Z,1032
2016-11-27T16:58:06.053Z,1032
2016-11-27T16:59:18.266Z,1152
2016-11-27T17:00:31.926Z,1240
2016-11-27T17:01:45.506Z,1316
2016-11-27T17:02:59.089Z,1372
2016-11-27T17:04:12.671Z,1468
2016-11-27T17:05:26.307Z,1828
2016-11-27T17:06:40.454Z,4672
2016-11-27T17:07:53.808Z,8528
2016-11-27T17:09:07.424Z,8332
2016-11-27T17:10:20.440Z,8316
2016-11-27T17:11:34.250Z,8288
2016-11-27T17:12:47.849Z,8344
2016-11-27T17:14:01.045Z,8308
2016-11-27T17:15:14.683Z,8280
2016-11-27T17:16:28.275Z,8336
2016-11-27T17:17:41.610Z,8332
2016-11-27T17:18:55.263Z,8396
2016-11-27T17:20:08.950Z,8388
2016-11-27T17:21:22.587Z,8388
2016-11-27T17:22:35.719Z,8148
2016-11-27T17:23:47.736Z,6100
2016-11-27T17:25:01.001Z,1588
2016-11-27T17:26:14.674Z,1476
2016-11-27T17:27:27.242Z,1400
2016-11-27T17:28:40.321Z,1448
2016-11-27T17:29:53.944Z,4096